^^
Station Historical Data
Daily Summary for April 18, 2021 Units:  English    Metric   Both
Daily Weekly Monthly Yearly
  High: Low: Average:
Temperature: 56.5 °F 39.8 °F 47.6 °F
Dew Point: 42.9 °F 29 °F 37.1 °F
Humidity: 87% 47% 68%
Wind Speed: 6mph 0mph 2.9mph
Wind Gust: 9mph - -
Wind- - SW
Pressure: 29.89 in 29.78 in -
Precipitation: 0.00 in    
 
 
Tabular Data for April 18, 2021
Time Temperature Dew Point Pressure Wind Wind Speed Wind Gust Humidity Rainfall Rate (Hourly) solar
00:00 48.1 °F 42.5 °F 29.87 in NE 1 mph 1 mph 81% 0.00 in 0 W/m2
00:05 48.1 °F 42.5 °F 29.87 in NE 1 mph 1 mph 81% 0.00 in 0 W/m2
00:10 48.1 °F 42.5 °F 29.87 in NE 1 mph 1 mph 81% 0.00 in 0 W/m2
00:30 48.1 °F 42.9 °F 29.87 in ENE 1 mph 2 mph 82% 0.00 in 0 W/m2
00:35 48.1 °F 42.9 °F 29.87 in ENE 1 mph 2 mph 82% 0.00 in 0 W/m2
00:40 48 °F 42.8 °F 29.87 in Calm   1 mph 82% 0.00 in 0 W/m2
00:45 47.9 °F 42.7 °F 29.87 in ENE 1 mph 1 mph 82% 0.00 in 0 W/m2
00:50 47.8 °F 42.3 °F 29.87 in ENE 1 mph 1 mph 81% 0.00 in 0 W/m2
00:55 47.7 °F 41.8 °F 29.87 in North 1 mph 1 mph 80% 0.00 in 0 W/m2
01:00 47.6 °F 41.7 °F 29.87 in East 1 mph 1 mph 80% 0.00 in 0 W/m2
01:05 47.5 °F 41.3 °F 29.87 in Calm   1 mph 79% 0.00 in 0 W/m2
01:10 47.3 °F 41.1 °F 29.87 in Calm     79% 0.00 in 0 W/m2
01:15 47 °F 40.5 °F 29.87 in Calm   1 mph 78% 0.00 in 0 W/m2
01:20 46.8 °F 40 °F 29.87 in Calm     77% 0.00 in 0 W/m2
01:25 46.7 °F 39.9 °F 29.87 in Calm     77% 0.00 in 0 W/m2
01:30 46.6 °F 39.8 °F 29.87 in Calm     77% 0.00 in 0 W/m2
01:35 46.5 °F 39.7 °F 29.86 in Calm     77% 0.00 in 0 W/m2
01:40 46.4 °F 39.6 °F 29.86 in Calm     77% 0.00 in 0 W/m2
01:45 46.3 °F 39.5 °F 29.87 in Calm     77% 0.00 in 0 W/m2
01:50 46.1 °F 39.3 °F 29.87 in Calm     77% 0.00 in 0 W/m2
01:55 45.9 °F 39.1 °F 29.87 in Calm   1 mph 77% 0.00 in 0 W/m2
02:00 45.8 °F 39 °F 29.87 in Calm     77% 0.00 in 0 W/m2
02:10 45.5 °F 38.7 °F 29.86 in Calm     77% 0.00 in 0 W/m2
02:15 45.4 °F 38.9 °F 29.86 in Calm     78% 0.00 in 0 W/m2
02:20 45.2 °F 38.7 °F 29.86 in Calm     78% 0.00 in 0 W/m2
02:25 45.1 °F 39 °F 29.86 in SE 1 mph 1 mph 79% 0.00 in 0 W/m2
02:30 44.9 °F 38.8 °F 29.86 in Calm     79% 0.00 in 0 W/m2
02:35 44.8 °F 38.7 °F 29.86 in Calm     79% 0.00 in 0 W/m2
02:40 44.7 °F 38.9 °F 29.86 in Calm     80% 0.00 in 0 W/m2
02:45 44.6 °F 38.8 °F 29.86 in Calm   1 mph 80% 0.00 in 0 W/m2
02:50 44.5 °F 38.7 °F 29.86 in Calm     80% 0.00 in 0 W/m2
02:55 44.3 °F 38.8 °F 29.85 in Calm     81% 0.00 in 0 W/m2
03:00 44.2 °F 38.7 °F 29.85 in Calm     81% 0.00 in 0 W/m2
03:05 44.1 °F 38.6 °F 29.85 in Calm     81% 0.00 in 0 W/m2
03:10 44 °F 38.9 °F 29.86 in Calm     82% 0.00 in 0 W/m2
03:15 43.9 °F 38.8 °F 29.85 in NNE 1 mph 1 mph 82% 0.00 in 0 W/m2
03:20 43.8 °F 39 °F 29.85 in NNE 1 mph 1 mph 83% 0.00 in 0 W/m2
03:25 43.7 °F 38.9 °F 29.85 in North 1 mph 2 mph 83% 0.00 in 0 W/m2
03:30 43.7 °F 39.2 °F 29.85 in NNW 2 mph 2 mph 84% 0.00 in 0 W/m2
03:35 43.7 °F 39.5 °F 29.86 in NW 2 mph 2 mph 85% 0.00 in 0 W/m2
03:40 43.8 °F 39.6 °F 29.86 in NW 2 mph 2 mph 85% 0.00 in 0 W/m2
03:45 43.8 °F 39.9 °F 29.86 in NW 2 mph 2 mph 86% 0.00 in 0 W/m2
03:50 43.8 °F 39.9 °F 29.86 in NW 2 mph 3 mph 86% 0.00 in 0 W/m2
03:55 43.8 °F 39.9 °F 29.86 in NW 2 mph 3 mph 86% 0.00 in 0 W/m2
04:00 43.8 °F 40.2 °F 29.86 in WNW 2 mph 2 mph 87% 0.00 in 0 W/m2
04:05 43.8 °F 39.9 °F 29.86 in NW 2 mph 2 mph 86% 0.00 in 0 W/m2
04:25 43.1 °F 38 °F 29.86 in NNW 3 mph 3 mph 82% 0.00 in 0 W/m2
04:30 42.9 °F 36.8 °F 29.86 in NNE 3 mph 4 mph 79% 0.00 in 0 W/m2
04:35 42.8 °F 36.4 °F 29.86 in NNE 3 mph 4 mph 78% 0.00 in 0 W/m2
04:40 42.9 °F 36.5 °F 29.86 in NNW 3 mph 3 mph 78% 0.00 in 0 W/m2
04:45 42.8 °F 35.8 °F 29.86 in WNW 3 mph 3 mph 76% 0.00 in 0 W/m2
04:50 42.6 °F 35.2 °F 29.86 in NW 3 mph 3 mph 75% 0.00 in 0 W/m2
04:55 42.7 °F 35.3 °F 29.86 in NW 3 mph 4 mph 75% 0.00 in 0 W/m2
05:00 42.6 °F 34.9 °F 29.86 in NW 2 mph 2 mph 74% 0.00 in 0 W/m2
05:10 42.4 °F 33.7 °F 29.86 in North 3 mph 3 mph 71% 0.00 in 0 W/m2
05:25 42.2 °F 32.4 °F 29.86 in NW 4 mph 8 mph 68% 0.00 in 0 W/m2
05:30 42.1 °F 31.6 °F 29.86 in North 4 mph 4 mph 66% 0.00 in 0 W/m2
05:40 42 °F 31.1 °F 29.86 in North 3 mph 4 mph 65% 0.00 in 0 W/m2
05:50 41.9 °F 31 °F 29.86 in NNW 3 mph 3 mph 65% 0.00 in 0 W/m2
06:00 41.7 °F 29.6 °F 29.86 in NNW 4 mph 4 mph 62% 0.00 in 0 W/m2
06:05 41.6 °F 29.9 °F 29.86 in NNW 4 mph 4 mph 63% 0.00 in 0 W/m2
06:10 41.5 °F 29.4 °F 29.86 in North 4 mph 5 mph 62% 0.00 in 0 W/m2
06:15 41.4 °F 29.3 °F 29.86 in NNW 4 mph 8 mph 62% 0.00 in 0 W/m2
06:20 41.3 °F 29.6 °F 29.86 in NW 4 mph 4 mph 63% 0.00 in 0 W/m2
06:30 41.2 °F 29.9 °F 29.86 in NNW 4 mph 4 mph 64% 0.00 in 0 W/m2
06:35 41.1 °F 30.2 °F 29.86 in North 3 mph 4 mph 65% 0.00 in 0 W/m2
06:40 41 °F 30.5 °F 29.87 in NNW 3 mph 3 mph 66% 0.00 in 0 W/m2
06:45 41 °F 30.5 °F 29.87 in NNW 2 mph 3 mph 66% 0.00 in 5 W/m2
06:55 40.8 °F 30.3 °F 29.87 in NNW 2 mph 2 mph 66% 0.00 in 11 W/m2
07:00 40.7 °F 30.6 °F 29.87 in NW 2 mph 2 mph 67% 0.00 in 14 W/m2
07:05 40.5 °F 30 °F 29.87 in NNW 3 mph 3 mph 66% 0.00 in 18 W/m2
07:10 40.5 °F 29.7 °F 29.87 in NNW 3 mph 4 mph 65% 0.00 in 21 W/m2
07:15 40.3 °F 29.5 °F 29.87 in NNW 2 mph 4 mph 65% 0.00 in 21 W/m2
07:20 40.3 °F 29.5 °F 29.87 in WNW 3 mph 3 mph 65% 0.00 in 28 W/m2
07:25 40.2 °F 29.4 °F 29.88 in NNW 3 mph 3 mph 65% 0.00 in 30 W/m2
07:30 40.2 °F 29.4 °F 29.88 in NW 3 mph 3 mph 65% 0.00 in 30 W/m2
07:35 40.2 °F 29.4 °F 29.88 in NW 3 mph 3 mph 65% 0.00 in 40 W/m2
07:40 40.2 °F 29.4 °F 29.88 in NNW 3 mph 3 mph 65% 0.00 in 32 W/m2
07:45 40.2 °F 29.4 °F 29.88 in NNW 2 mph 3 mph 65% 0.00 in 35 W/m2
07:50 40.2 °F 29.4 °F 29.88 in NNW 2 mph 4 mph 65% 0.00 in 42 W/m2
07:55 40.2 °F 29 °F 29.88 in NNW 4 mph 4 mph 64% 0.00 in 91 W/m2
08:00 40.2 °F 29 °F 29.88 in NW 4 mph 5 mph 64% 0.00 in 109 W/m2
08:05 40.2 °F 29 °F 29.88 in NNW 3 mph 5 mph 64% 0.00 in 51 W/m2
08:10 40.2 °F 29.4 °F 29.89 in WNW 3 mph 3 mph 65% 0.00 in 84 W/m2
08:15 40.3 °F 29.5 °F 29.89 in NW 4 mph 4 mph 65% 0.00 in 123 W/m2
08:30 40.2 °F 29.7 °F 29.89 in NW 4 mph 4 mph 66% 0.00 in 251 W/m2
08:35 40.2 °F 29.7 °F 29.89 in NW 4 mph 4 mph 66% 0.00 in 265 W/m2
08:40 40 °F 29.6 °F 29.89 in NW 4 mph 4 mph 66% 0.00 in 281 W/m2
08:45 39.8 °F 29.4 °F 29.89 in NNW 3 mph 4 mph 66% 0.00 in 297 W/m2
08:50 39.9 °F 29.5 °F 29.89 in NW 3 mph 4 mph 66% 0.00 in 313 W/m2
08:55 40 °F 29.9 °F 29.89 in NNW 4 mph 5 mph 67% 0.00 in 329 W/m2
09:00 40 °F 29.9 °F 29.89 in NNW 4 mph 4 mph 67% 0.00 in 345 W/m2
09:05 40 °F 29.9 °F 29.88 in West 5 mph 7 mph 67% 0.00 in 359 W/m2
09:10 40.2 °F 30.8 °F 29.88 in NW 5 mph 7 mph 69% 0.00 in 373 W/m2
09:15 40.4 °F 30.3 °F 29.88 in NW 5 mph 7 mph 67% 0.00 in 388 W/m2
09:20 40.8 °F 30.7 °F 29.89 in WNW 4 mph 4 mph 67% 0.00 in 403 W/m2
09:25 40.6 °F 30.1 °F 29.88 in NW 4 mph 4 mph 66% 0.00 in 418 W/m2
09:30 40.7 °F 30.6 °F 29.88 in NW 4 mph 5 mph 67% 0.00 in 432 W/m2
09:35 41 °F 30.5 °F 29.88 in West 3 mph 5 mph 66% 0.00 in 446 W/m2
09:45 41.5 °F 31.4 °F 29.88 in NNW 2 mph 5 mph 67% 0.00 in 475 W/m2
09:50 41.3 °F 31.2 °F 29.88 in SSE 3 mph 3 mph 67% 0.00 in 490 W/m2
09:55 41.6 °F 31.4 °F 29.88 in NW 3 mph 3 mph 67% 0.00 in 506 W/m2
10:00 41.4 °F 31.6 °F 29.88 in West 2 mph 2 mph 68% 0.00 in 520 W/m2
10:05 41.4 °F 31.6 °F 29.88 in WNW 3 mph 3 mph 68% 0.00 in 534 W/m2
10:10 41.8 °F 32 °F 29.88 in West 4 mph 7 mph 68% 0.00 in 547 W/m2
10:15 41.5 °F 31.7 °F 29.88 in NNW 4 mph 7 mph 68% 0.00 in 557 W/m2
10:20 42.7 °F 33.6 °F 29.88 in West 2 mph 3 mph 70% 0.00 in 570 W/m2
10:30 42.8 °F 33 °F 29.88 in WNW 4 mph 9 mph 68% 0.00 in 598 W/m2
10:40 42.4 °F 33.3 °F 29.88 in North 3 mph 3 mph 70% 0.00 in 626 W/m2
10:55 43 °F 33.2 °F 29.88 in NW 4 mph 4 mph 68% 0.00 in 638 W/m2
11:00 42.9 °F 33.1 °F 29.88 in NNW 3 mph 3 mph 68% 0.00 in 642 W/m2
11:10 43.5 °F 34.7 °F 29.88 in SW 3 mph 4 mph 71% 0.00 in 679 W/m2
11:15 44 °F 35.2 °F 29.88 in WSW 4 mph 4 mph 71% 0.00 in 694 W/m2
11:20 44.1 °F 34.9 °F 29.88 in West 3 mph 3 mph 70% 0.00 in 710 W/m2
11:25 43.6 °F 34.5 °F 29.88 in SSW 4 mph 4 mph 70% 0.00 in 721 W/m2
11:30 43.9 °F 34.7 °F 29.88 in WSW 4 mph 4 mph 70% 0.00 in 677 W/m2
11:35 44 °F 34.8 °F 29.88 in WSW 5 mph 5 mph 70% 0.00 in 693 W/m2
11:40 44.1 °F 34.6 °F 29.88 in SW 4 mph 4 mph 69% 0.00 in 638 W/m2
11:45 44.4 °F 35.2 °F 29.88 in SW 3 mph 4 mph 70% 0.00 in 668 W/m2
11:50 44.2 °F 35 °F 29.87 in SW 4 mph 5 mph 70% 0.00 in 733 W/m2
11:55 44.8 °F 35.6 °F 29.87 in SW 4 mph 5 mph 70% 0.00 in 731 W/m2
12:00 45.2 °F 36 °F 29.87 in SW 4 mph 4 mph 70% 0.00 in 733 W/m2
12:05 45.7 °F 36.8 °F 29.87 in SSW 4 mph 6 mph 71% 0.00 in 729 W/m2
12:10 45.7 °F 36.1 °F 29.87 in SW 4 mph 4 mph 69% 0.00 in 796 W/m2
12:15 45.9 °F 37.4 °F 29.87 in SSW 5 mph 5 mph 72% 0.00 in 838 W/m2
12:20 46.3 °F 37 °F 29.87 in SW 4 mph 4 mph 70% 0.00 in 598 W/m2
12:25 46.5 °F 37.6 °F 29.87 in SW 4 mph 4 mph 71% 0.00 in 582 W/m2
12:30 46.7 °F 38.5 °F 29.87 in SW 4 mph 4 mph 73% 0.00 in 587 W/m2
12:40 46.2 °F 38 °F 29.86 in WSW 4 mph 4 mph 73% 0.00 in 515 W/m2
12:45 46.2 °F 37.7 °F 29.86 in West 5 mph 5 mph 72% 0.00 in 575 W/m2
12:50 46.4 °F 37.9 °F 29.86 in WSW 5 mph 5 mph 72% 0.00 in 666 W/m2
12:55 47.1 °F 38.9 °F 29.86 in WSW 5 mph 5 mph 73% 0.00 in 652 W/m2
13:00 47.5 °F 38.9 °F 29.86 in WSW 5 mph 5 mph 72% 0.00 in 796 W/m2
13:05 48.8 °F 39.4 °F 29.86 in SW 4 mph 5 mph 70% 0.00 in 837 W/m2
13:10 49.2 °F 39.8 °F 29.86 in SW 4 mph 4 mph 70% 0.00 in 842 W/m2
13:15 48.7 °F 39 °F 29.85 in SW 5 mph 6 mph 69% 0.00 in 846 W/m2
13:20 49.1 °F 39.7 °F 29.85 in SSW 5 mph 5 mph 70% 0.00 in 847 W/m2
13:25 48.9 °F 38.8 °F 29.85 in SW 5 mph 5 mph 68% 0.00 in 842 W/m2
13:30 49.4 °F 39.7 °F 29.85 in SSW 5 mph 5 mph 69% 0.00 in 846 W/m2
13:35 49.3 °F 39.6 °F 29.85 in SW 5 mph 5 mph 69% 0.00 in 844 W/m2
13:40 50.3 °F 40.5 °F 29.84 in South 5 mph 5 mph 69% 0.00 in 847 W/m2
13:45 49.6 °F 37.9 °F 29.84 in SSW 5 mph 5 mph 64% 0.00 in 849 W/m2
13:50 49.9 °F 37 °F 29.84 in SSW 5 mph 5 mph 61% 0.00 in 849 W/m2
13:55 50.3 °F 37.4 °F 29.84 in SSW 4 mph 5 mph 61% 0.00 in 847 W/m2
14:00 51.7 °F 39.9 °F 29.84 in ENE 3 mph 3 mph 64% 0.00 in 846 W/m2
14:05 52.2 °F 41.2 °F 29.84 in NNE 2 mph 3 mph 66% 0.00 in 844 W/m2
14:15 52.6 °F 40.4 °F 29.83 in SSW 2 mph 4 mph 63% 0.00 in 840 W/m2
14:20 52.5 °F 40.3 °F 29.83 in SW 2 mph 2 mph 63% 0.00 in 840 W/m2
14:25 52.4 °F 40.6 °F 29.83 in NE 2 mph 2 mph 64% 0.00 in 837 W/m2
14:30 53.2 °F 39.2 °F 29.83 in NNE 2 mph 4 mph 59% 0.00 in 831 W/m2
14:35 52.8 °F 40.5 °F 29.83 in NE 2 mph 4 mph 63% 0.00 in 828 W/m2
14:40 53.1 °F 40.8 °F 29.83 in NW 2 mph 2 mph 63% 0.00 in 824 W/m2
14:45 53 °F 40.3 °F 29.83 in West 2 mph 2 mph 62% 0.00 in 819 W/m2
14:50 53.2 °F 41.3 °F 29.82 in ENE 2 mph 2 mph 64% 0.00 in 816 W/m2
14:55 53.2 °F 40.9 °F 29.82 in West 2 mph 2 mph 63% 0.00 in 809 W/m2
15:00 53.4 °F 39.9 °F 29.82 in North 1 mph 1 mph 60% 0.00 in 803 W/m2
15:05 53.9 °F 41.2 °F 29.82 in WSW 1 mph 2 mph 62% 0.00 in 798 W/m2
15:10 53.9 °F 41.2 °F 29.82 in WNW 1 mph 1 mph 62% 0.00 in 791 W/m2
15:15 53.8 °F 39.8 °F 29.82 in WNW 1 mph 1 mph 59% 0.00 in 784 W/m2
15:20 54.2 °F 40.2 °F 29.82 in SSW 1 mph 2 mph 59% 0.00 in 779 W/m2
15:25 54.6 °F 40.6 °F 29.82 in West 1 mph 2 mph 59% 0.00 in 772 W/m2
15:30 55 °F 39.1 °F 29.81 in West 1 mph 2 mph 55% 0.00 in 765 W/m2
15:35 54.9 °F 41.3 °F 29.81 in West 1 mph 2 mph 60% 0.00 in 756 W/m2
15:40 54.7 °F 38.4 °F 29.81 in SSW 1 mph 4 mph 54% 0.00 in 749 W/m2
15:45 54.6 °F 38.3 °F 29.81 in SW 3 mph 5 mph 54% 0.00 in 740 W/m2
15:50 54.5 °F 38.2 °F 29.81 in SSW 3 mph 4 mph 54% 0.00 in 726 W/m2
15:55 54.5 °F 37.7 °F 29.81 in SSW 4 mph 4 mph 53% 0.00 in 721 W/m2
16:00 55.5 °F 39.6 °F 29.81 in SSE 3 mph 3 mph 55% 0.00 in 710 W/m2
16:05 55.8 °F 38.4 °F 29.81 in South 2 mph 3 mph 52% 0.00 in 700 W/m2
16:10 55.4 °F 36 °F 29.80 in South 2 mph 3 mph 48% 0.00 in 689 W/m2
16:15 55.8 °F 38.4 °F 29.80 in South 2 mph 3 mph 52% 0.00 in 680 W/m2
16:20 55.6 °F 38.2 °F 29.80 in SSW 2 mph 5 mph 52% 0.00 in 668 W/m2
16:25 55.1 °F 35.7 °F 29.80 in SW 3 mph 5 mph 48% 0.00 in 657 W/m2
16:30 55.5 °F 38.6 °F 29.80 in SSW 4 mph 4 mph 53% 0.00 in 647 W/m2
16:35 55.5 °F 37.1 °F 29.80 in SSW 4 mph 4 mph 50% 0.00 in 635 W/m2
16:40 55.6 °F 36.7 °F 29.80 in SSW 4 mph 4 mph 49% 0.00 in 622 W/m2
16:45 55.6 °F 36.2 °F 29.80 in South 3 mph 4 mph 48% 0.00 in 610 W/m2
16:50 55.8 °F 38.9 °F 29.79 in SSW 3 mph 3 mph 53% 0.00 in 596 W/m2
16:55 55.9 °F 35.9 °F 29.79 in SSW 4 mph 4 mph 47% 0.00 in 584 W/m2
17:00 55.8 °F 37.4 °F 29.80 in SSW 3 mph 3 mph 50% 0.00 in 571 W/m2
17:05 55.8 °F 37.4 °F 29.79 in SW 4 mph 5 mph 50% 0.00 in 561 W/m2
17:10 56.1 °F 39.7 °F 29.79 in SSW 4 mph 5 mph 54% 0.00 in 547 W/m2
17:15 56.2 °F 38.3 °F 29.79 in SSW 5 mph 5 mph 51% 0.00 in 533 W/m2
17:20 56.2 °F 38.3 °F 29.79 in SSW 5 mph 6 mph 51% 0.00 in 519 W/m2
17:25 56.2 °F 38.3 °F 29.79 in SSW 5 mph 6 mph 51% 0.00 in 504 W/m2
17:30 56.5 °F 40.5 °F 29.79 in SW 5 mph 6 mph 55% 0.00 in 490 W/m2
17:35 56.4 °F 38 °F 29.79 in SW 5 mph 6 mph 50% 0.00 in 476 W/m2
17:40 56.2 °F 38.3 °F 29.79 in SSW 5 mph 5 mph 51% 0.00 in 466 W/m2
17:45 56.3 °F 39.4 °F 29.79 in SSW 5 mph 5 mph 53% 0.00 in 446 W/m2
17:50 56.2 °F 37.3 °F 29.79 in SSW 5 mph 5 mph 49% 0.00 in 432 W/m2
17:55 56.2 °F 38.3 °F 29.79 in SW 5 mph 5 mph 51% 0.00 in 417 W/m2
18:00 56.2 °F 39.8 °F 29.79 in SSW 5 mph 5 mph 54% 0.00 in 401 W/m2
18:05 56.1 °F 39.7 °F 29.79 in SW 5 mph 5 mph 54% 0.00 in 388 W/m2
18:10 56.3 °F 40.3 °F 29.79 in SW 5 mph 6 mph 55% 0.00 in 373 W/m2
18:15 56.2 °F 40.7 °F 29.79 in SSW 5 mph 6 mph 56% 0.00 in 355 W/m2
18:20 56.1 °F 37.7 °F 29.78 in SSW 5 mph 5 mph 50% 0.00 in 341 W/m2
18:25 56.1 °F 40.1 °F 29.78 in SSW 5 mph 6 mph 55% 0.00 in 323 W/m2
18:30 56.1 °F 39.2 °F 29.79 in SW 5 mph 5 mph 53% 0.00 in 308 W/m2
18:45 56.2 °F 40.2 °F 29.78 in SW 4 mph 4 mph 55% 0.00 in 172 W/m2
18:50 56.1 °F 40.1 °F 29.78 in SSW 5 mph 5 mph 55% 0.00 in 70 W/m2
18:55 56 °F 41 °F 29.78 in SSW 5 mph 5 mph 57% 0.00 in 79 W/m2
19:00 55.9 °F 39 °F 29.78 in SW 5 mph 5 mph 53% 0.00 in 155 W/m2
19:15 55.8 °F 40.8 °F 29.78 in WSW 4 mph 5 mph 57% 0.00 in 86 W/m2
19:20 55.7 °F 39.3 °F 29.78 in SW 3 mph 3 mph 54% 0.00 in 84 W/m2
19:25 55.5 °F 40.5 °F 29.78 in SW 3 mph 3 mph 57% 0.00 in 102 W/m2
19:30 55.5 °F 40.5 °F 29.78 in SSW 3 mph 5 mph 57% 0.00 in 42 W/m2
19:35 55.5 °F 39.6 °F 29.78 in WSW 3 mph 5 mph 55% 0.00 in 54 W/m2
19:40 55.4 °F 40 °F 29.78 in WSW 3 mph 4 mph 56% 0.00 in 37 W/m2
19:45 55.3 °F 39.9 °F 29.78 in SW 2 mph 4 mph 56% 0.00 in 40 W/m2
19:50 55.2 °F 39.8 °F 29.78 in SW 2 mph 2 mph 56% 0.00 in 35 W/m2
19:55 55.1 °F 40.6 °F 29.78 in SW 2 mph 2 mph 58% 0.00 in 28 W/m2
20:00 54.8 °F 38.5 °F 29.78 in WSW 1 mph 2 mph 54% 0.00 in 19 W/m2
20:10 54.2 °F 36.5 °F 29.78 in NNW 1 mph 1 mph 51% 0.00 in 11 W/m2
20:15 53.7 °F 37 °F 29.78 in NNW 2 mph 2 mph 53% 0.00 in 9 W/m2
20:25 53.5 °F 35.3 °F 29.78 in NNW 1 mph 1 mph 50% 0.00 in 0 W/m2
20:30 53.1 °F 36.4 °F 29.78 in NW 1 mph 1 mph 53% 0.00 in 0 W/m2
20:35 52.2 °F 37.4 °F 29.78 in NW 1 mph 1 mph 57% 0.00 in 0 W/m2
20:40 51.5 °F 37.6 °F 29.78 in NW 1 mph 1 mph 59% 0.00 in 0 W/m2
20:45 51.2 °F 40.2 °F 29.78 in NW 1 mph 1 mph 66% 0.00 in 0 W/m2
20:50 50.8 °F 40.2 °F 29.78 in NE 1 mph 3 mph 67% 0.00 in 0 W/m2
20:55 50.5 °F 39.9 °F 29.78 in East 2 mph 3 mph 67% 0.00 in 0 W/m2
21:00 49.8 °F 40 °F 29.78 in ENE 1 mph 2 mph 69% 0.00 in 0 W/m2
21:05 49.3 °F 40.3 °F 29.78 in ENE 2 mph 2 mph 71% 0.00 in 0 W/m2
21:10 49 °F 40 °F 29.79 in ENE 1 mph 1 mph 71% 0.00 in 0 W/m2
21:15 48.8 °F 39.8 °F 29.79 in ENE 1 mph 1 mph 71% 0.00 in 0 W/m2
21:20 48.8 °F 39.1 °F 29.79 in ENE 1 mph 1 mph 69% 0.00 in 0 W/m2
21:25 48.5 °F 38.4 °F 29.79 in ENE 1 mph 1 mph 68% 0.00 in 0 W/m2
21:30 48.2 °F 38.5 °F 29.79 in East 2 mph 3 mph 69% 0.00 in 0 W/m2
21:40 47.4 °F 38.1 °F 29.79 in ESE 3 mph 3 mph 70% 0.00 in 0 W/m2
21:45 47 °F 37.7 °F 29.79 in ESE 3 mph 3 mph 70% 0.00 in 0 W/m2
21:50 46.9 °F 38.7 °F 29.80 in SE 3 mph 3 mph 73% 0.00 in 0 W/m2
21:55 46.9 °F 39 °F 29.79 in ESE 4 mph 7 mph 74% 0.00 in 0 W/m2
22:05 46.7 °F 39.2 °F 29.79 in SE 5 mph 6 mph 75% 0.00 in 0 W/m2
22:10 46.5 °F 39 °F 29.79 in ESE 6 mph 7 mph 75% 0.00 in 0 W/m2
22:15 46.4 °F 38.9 °F 29.79 in ESE 5 mph 7 mph 75% 0.00 in 0 W/m2
22:20 46.7 °F 39.9 °F 29.79 in ESE 5 mph 8 mph 77% 0.00 in 0 W/m2
22:25 46.7 °F 39.9 °F 29.79 in SE 6 mph 8 mph 77% 0.00 in 0 W/m2
22:30 47 °F 40.5 °F 29.79 in SE 6 mph 6 mph 78% 0.00 in 0 W/m2
22:35 47 °F 40.2 °F 29.79 in ESE 6 mph 7 mph 77% 0.00 in 0 W/m2
22:40 47.1 °F 40.6 °F 29.79 in SE 6 mph 6 mph 78% 0.00 in 0 W/m2
22:45 47 °F 40.2 °F 29.79 in SE 6 mph 6 mph 77% 0.00 in 0 W/m2
22:50 46.9 °F 40.1 °F 29.79 in South 5 mph 5 mph 77% 0.00 in 0 W/m2
22:55 46.9 °F 40.1 °F 29.79 in ESE 5 mph 5 mph 77% 0.00 in 0 W/m2
23:00 46.9 °F 40.1 °F 29.79 in SE 5 mph 5 mph 77% 0.00 in 0 W/m2
23:05 46.9 °F 39.7 °F 29.79 in SE 5 mph 5 mph 76% 0.00 in 0 W/m2
23:10 46.8 °F 40 °F 29.78 in SE 4 mph 4 mph 77% 0.00 in 0 W/m2
23:15 46.8 °F 39.6 °F 29.78 in South 4 mph 6 mph 76% 0.00 in 0 W/m2
23:20 46.7 °F 39.2 °F 29.78 in SE 4 mph 4 mph 75% 0.00 in 0 W/m2
23:25 46.7 °F 39.2 °F 29.79 in South 4 mph 4 mph 75% 0.00 in 0 W/m2
23:30 46.5 °F 39 °F 29.79 in SSE 3 mph 3 mph 75% 0.00 in 0 W/m2
23:35 46.3 °F 38.8 °F 29.78 in SE 3 mph 3 mph 75% 0.00 in 0 W/m2
23:40 46.2 °F 39.1 °F 29.78 in SSW 3 mph 3 mph 76% 0.00 in 0 W/m2
23:45 46.1 °F 39 °F 29.78 in SSE 3 mph 3 mph 76% 0.00 in 0 W/m2
23:50 46.1 °F 39 °F 29.79 in South 3 mph 3 mph 76% 0.00 in 0 W/m2
23:55 46.1 °F 39 °F 29.79 in SSE 3 mph 3 mph 76% 0.00 in 0 W/m2
Sand Point, Michigan, USA
Compliments of Weather Underground - 2 mb